Time;durP1;ratioP1;P1;durP2;ratioP2;P2;SDS_P1;SDS_P2;PMS_P1;PMS_P2;Temp;Humidity;BMP_temperature;BMP_pressure;BME280_temperature;BME280_humidity;BME280_pressure;Samples;Min_cycle;Max_cycle;Signal;HPM_P1;HPM_P2
2022/07/05 00:01:11;;;;;;;;;;;19.60;95.60;;;;;;5125380;27;19955;-66
2022/07/05 00:03:38;;;;;;;;;;;19.60;95.60;;;;;;5125466;27;19962;-66
2022/07/05 00:06:05;;;;;;;;;;;19.50;95.50;;;;;;5127625;27;19935;-66
2022/07/05 00:08:32;;;;;;;;;;;19.60;95.50;;;;;;5125239;27;19989;-66
2022/07/05 00:10:58;;;;;;;;;;;19.60;95.70;;;;;;5138271;27;19919;-66
2022/07/05 00:13:25;;;;;;;;;;;19.50;95.70;;;;;;5129760;27;19919;-66
2022/07/05 00:15:53;;;;;;;;;;;19.50;96.00;;;;;;5140989;27;20126;-66
2022/07/05 00:18:20;;;;;;;;;;;19.40;96.20;;;;;;5133216;27;19978;-66
2022/07/05 00:20:46;;;;;;;;;;;19.40;96.90;;;;;;5135872;27;19926;-66
2022/07/05 00:23:13;;;;;;;;;;;19.30;97.10;;;;;;5143491;27;19950;-66
2022/07/05 00:25:40;;;;;;;;;;;19.30;97.10;;;;;;5134178;27;19920;-66
2022/07/05 00:28:06;;;;;;;;;;;19.20;97.10;;;;;;5124438;28;19920;-66
2022/07/05 00:30:33;;;;;;;;;;;19.20;97.20;;;;;;5131216;27;20110;-66
2022/07/05 00:33:01;;;;;;;;;;;19.10;97.10;;;;;;5136479;27;19919;-66
2022/07/05 00:35:28;;;;;;;;;;;19.10;97.00;;;;;;5144516;27;19983;-66
2022/07/05 00:37:54;;;;;;;;;;;19.10;97.00;;;;;;5124585;27;19951;-66
2022/07/05 00:40:21;;;;;;;;;;;19.00;97.00;;;;;;5136713;27;19982;-66
2022/07/05 00:42:48;;;;;;;;;;;18.90;97.10;;;;;;5124612;27;19919;-66
2022/07/05 00:45:14;;;;;;;;;;;18.90;97.30;;;;;;5136062;27;19919;-66
2022/07/05 00:47:41;;;;;;;;;;;18.80;97.40;;;;;;5123936;28;19920;-66
2022/07/05 00:50:09;;;;;;;;;;;18.80;97.60;;;;;;5132512;27;21189;-66
2022/07/05 00:52:36;;;;;;;;;;;18.80;97.60;;;;;;5144030;27;20092;-66
2022/07/05 00:55:03;;;;;;;;;;;18.70;97.70;;;;;;5132218;27;20249;-65
2022/07/05 00:57:29;;;;;;;;;;;18.70;97.90;;;;;;5123994;28;19951;-66
2022/07/05 00:59:56;;;;;;;;;;;18.60;97.90;;;;;;5123763;28;19947;-66
2022/07/05 01:02:23;;;;;;;;;;;18.60;98.10;;;;;;5131583;27;20173;-66
2022/07/05 01:04:50;;;;;;;;;;;18.60;98.20;;;;;;5130631;27;19931;-66
2022/07/05 01:07:20;;;;;;;;;;;18.50;98.40;;;;;;5144094;27;19995;-67
2022/07/05 01:09:47;;;;;;;;;;;18.40;98.50;;;;;;5142183;27;19972;-66
2022/07/05 01:12:14;;;;;;;;;;;18.40;98.60;;;;;;5143990;27;19957;-66
2022/07/05 01:14:41;;;;;;;;;;;18.30;98.80;;;;;;5140345;28;19927;-66
2022/07/05 01:17:08;;;;;;;;;;;18.20;99.00;;;;;;5137037;28;19983;-66
2022/07/05 01:19:35;;;;;;;;;;;18.20;99.10;;;;;;5140186;28;20267;-66
2022/07/05 01:22:03;;;;;;;;;;;18.10;99.10;;;;;;5144460;28;19977;-66
2022/07/05 01:24:31;;;;;;;;;;;18.00;99.00;;;;;;5127138;28;20211;-66
2022/07/05 01:26:58;;;;;;;;;;;18.00;99.30;;;;;;5128883;28;19920;-66
2022/07/05 01:29:25;;;;;;;;;;;18.00;99.30;;;;;;5132275;28;20171;-66
2022/07/05 01:31:52;;;;;;;;;;;17.90;99.40;;;;;;5134084;28;19923;-66
2022/07/05 01:34:18;;;;;;;;;;;17.90;99.30;;;;;;5145630;27;19986;-65
2022/07/05 01:36:45;;;;;;;;;;;17.80;99.40;;;;;;5144170;27;20218;-66
2022/07/05 01:39:12;;;;;;;;;;;17.80;99.50;;;;;;5147451;27;19969;-66
2022/07/05 01:41:40;;;;;;;;;;;17.70;99.60;;;;;;5136633;27;19926;-66
2022/07/05 01:44:07;;;;;;;;;;;17.70;99.70;;;;;;5127386;28;19920;-66
2022/07/05 01:46:37;;;;;;;;;;;17.60;99.80;;;;;;5141145;27;20118;-66
2022/07/05 01:49:06;;;;;;;;;;;17.50;99.80;;;;;;5137673;27;19982;-66
2022/07/05 01:51:34;;;;;;;;;;;17.50;99.90;;;;;;5140543;27;19986;-66
2022/07/05 01:54:01;;;;;;;;;;;17.50;99.90;;;;;;5139950;27;19947;-66
2022/07/05 01:56:28;;;;;;;;;;;17.40;99.90;;;;;;5135358;27;19958;-66
2022/07/05 01:58:56;;;;;;;;;;;17.40;99.90;;;;;;5145652;27;19919;-66
2022/07/05 02:01:32;;;;;;;;;;;17.30;99.90;;;;;;5147907;27;19955;-66
2022/07/05 02:03:59;;;;;;;;;;;17.30;99.90;;;;;;5130166;27;19978;-66
2022/07/05 02:06:26;;;;;;;;;;;17.20;99.90;;;;;;5127052;28;19955;-66
2022/07/05 02:08:52;;;;;;;;;;;17.10;99.90;;;;;;5128515;27;19990;-66
2022/07/05 02:11:19;;;;;;;;;;;17.10;99.90;;;;;;5135573;27;19978;-66
2022/07/05 02:13:45;;;;;;;;;;;17.00;99.90;;;;;;5126308;28;19959;-66
2022/07/05 02:16:13;;;;;;;;;;;16.90;99.90;;;;;;5134658;27;19962;-66
2022/07/05 02:18:40;;;;;;;;;;;16.90;99.90;;;;;;5132605;27;20239;-66
2022/07/05 02:21:07;;;;;;;;;;;16.80;99.90;;;;;;5146798;27;19975;-66
2022/07/05 02:23:33;;;;;;;;;;;16.70;99.90;;;;;;5146874;27;19919;-66
2022/07/05 02:26:00;;;;;;;;;;;16.70;99.90;;;;;;5138863;27;19951;-66
2022/07/05 02:28:27;;;;;;;;;;;16.70;99.90;;;;;;5127306;28;19958;-66
2022/07/05 02:30:53;;;;;;;;;;;16.70;99.90;;;;;;5126984;27;19978;-66
2022/07/05 02:33:21;;;;;;;;;;;16.60;99.90;;;;;;5126135;28;19963;-66
2022/07/05 02:35:48;;;;;;;;;;;16.60;99.90;;;;;;5127590;27;19935;-66
2022/07/05 02:38:15;;;;;;;;;;;16.50;99.90;;;;;;5126941;28;19951;-66
2022/07/05 02:40:41;;;;;;;;;;;16.50;99.90;;;;;;5142912;27;20178;-66
2022/07/05 02:43:08;;;;;;;;;;;16.50;99.90;;;;;;5146522;27;19923;-65
2022/07/05 02:45:34;;;;;;;;;;;16.40;99.90;;;;;;5141694;27;19990;-66
2022/07/05 02:48:01;;;;;;;;;;;16.30;99.90;;;;;;5126248;28;19920;-66
2022/07/05 02:50:29;;;;;;;;;;;16.30;99.90;;;;;;5136248;27;19955;-66
2022/07/05 02:52:56;;;;;;;;;;;16.30;99.90;;;;;;5125365;28;19955;-66
2022/07/05 02:55:23;;;;;;;;;;;16.20;99.90;;;;;;5126633;27;19970;-66
2022/07/05 02:57:49;;;;;;;;;;;16.10;99.90;;;;;;5126557;27;19987;-66
2022/07/05 03:00:16;;;;;;;;;;;16.10;99.90;;;;;;5137759;27;20222;-66
2022/07/05 03:02:43;;;;;;;;;;;16.00;99.90;;;;;;5146141;27;20241;-66
2022/07/05 03:05:10;;;;;;;;;;;15.90;99.90;;;;;;5145205;27;19919;-66
2022/07/05 03:07:38;;;;;;;;;;;15.90;99.90;;;;;;5126113;28;19963;-66
2022/07/05 03:10:05;;;;;;;;;;;15.90;99.90;;;;;;5126152;27;19958;-66
2022/07/05 03:12:31;;;;;;;;;;;15.80;99.90;;;;;;5145284;27;20244;-66
2022/07/05 03:14:58;;;;;;;;;;;15.80;99.90;;;;;;5146260;27;20122;-65
2022/07/05 03:17:24;;;;;;;;;;;15.80;99.90;;;;;;5130291;27;19982;-66
2022/07/05 03:19:51;;;;;;;;;;;15.70;99.90;;;;;;5137253;27;19920;-66
2022/07/05 03:22:18;;;;;;;;;;;15.60;99.90;;;;;;5132211;27;19927;-66
2022/07/05 03:24:46;;;;;;;;;;;15.60;99.90;;;;;;5146011;27;19927;-66
2022/07/05 03:27:12;;;;;;;;;;;15.60;99.90;;;;;;5136915;27;20230;-66
2022/07/05 03:29:39;;;;;;;;;;;15.50;99.90;;;;;;5131706;27;20226;-66
2022/07/05 03:32:06;;;;;;;;;;;15.40;99.90;;;;;;5146026;27;20182;-66
2022/07/05 03:34:33;;;;;;;;;;;15.40;99.90;;;;;;5145775;27;19919;-66
2022/07/05 03:36:59;;;;;;;;;;;15.30;99.90;;;;;;5145998;27;19954;-66
2022/07/05 03:39:26;;;;;;;;;;;15.30;99.90;;;;;;5141801;27;20111;-65
2022/07/05 03:41:54;;;;;;;;;;;15.20;99.90;;;;;;5125606;28;20115;-66
2022/07/05 03:44:21;;;;;;;;;;;15.10;99.90;;;;;;5124673;28;19984;-66
2022/07/05 03:46:47;;;;;;;;;;;15.10;99.90;;;;;;5125413;27;20257;-66
2022/07/05 03:49:14;;;;;;;;;;;15.10;99.90;;;;;;5126604;27;20222;-66
2022/07/05 03:51:41;;;;;;;;;;;15.10;99.90;;;;;;5129593;27;20096;-66
2022/07/05 03:54:07;;;;;;;;;;;15.00;99.90;;;;;;5124145;28;19920;-66
2022/07/05 03:56:34;;;;;;;;;;;15.00;99.90;;;;;;5138532;27;19983;-66
2022/07/05 03:59:02;;;;;;;;;;;15.10;99.90;;;;;;5144554;27;19926;-66
2022/07/05 04:01:28;;;;;;;;;;;15.10;99.90;;;;;;5125077;28;19932;-66
2022/07/05 04:03:55;;;;;;;;;;;15.00;99.90;;;;;;5124377;27;19973;-66
2022/07/05 04:06:22;;;;;;;;;;;15.10;99.90;;;;;;5125124;28;20176;-66
2022/07/05 04:08:49;;;;;;;;;;;15.00;99.90;;;;;;5124541;28;20269;-66
2022/07/05 04:11:16;;;;;;;;;;;15.00;99.90;;;;;;5143258;27;20159;-66
2022/07/05 04:13:43;;;;;;;;;;;15.00;99.90;;;;;;5123645;28;19924;-65
2022/07/05 04:16:11;;;;;;;;;;;14.90;99.90;;;;;;5128611;27;20045;-66
2022/07/05 04:18:37;;;;;;;;;;;14.90;99.90;;;;;;5138929;27;19919;-66
2022/07/05 04:21:04;;;;;;;;;;;14.90;99.90;;;;;;5127687;27;19920;-66
2022/07/05 04:23:31;;;;;;;;;;;15.00;99.90;;;;;;5141713;27;20182;-66
2022/07/05 04:25:58;;;;;;;;;;;15.00;99.90;;;;;;5144883;27;19920;-66
2022/07/05 04:28:25;;;;;;;;;;;15.00;99.90;;;;;;5127824;27;19978;-66
2022/07/05 04:30:51;;;;;;;;;;;15.10;99.90;;;;;;5124073;27;19927;-66
2022/07/05 04:33:19;;;;;;;;;;;15.10;99.90;;;;;;5123858;28;19927;-66
2022/07/05 04:35:46;;;;;;;;;;;15.20;99.90;;;;;;5138388;27;20211;-66
2022/07/05 04:38:12;;;;;;;;;;;15.30;99.90;;;;;;5124117;28;20253;-66
2022/07/05 04:40:40;;;;;;;;;;;15.30;99.90;;;;;;5139983;27;20122;-66
2022/07/05 04:43:07;;;;;;;;;;;15.40;99.90;;;;;;5144218;27;19927;-66
2022/07/05 04:45:34;;;;;;;;;;;15.50;99.90;;;;;;5144249;27;19982;-66
2022/07/05 04:48:00;;;;;;;;;;;15.60;99.90;;;;;;5144035;27;19986;-66
2022/07/05 04:50:28;;;;;;;;;;;15.70;99.90;;;;;;5129833;27;19919;-66
2022/07/05 04:52:55;;;;;;;;;;;15.80;99.90;;;;;;5126144;27;19963;-66
2022/07/05 04:55:22;;;;;;;;;;;15.90;99.90;;;;;;5141433;27;19927;-66
2022/07/05 04:57:48;;;;;;;;;;;16.00;99.90;;;;;;5143779;27;19951;-66
2022/07/05 05:00:15;;;;;;;;;;;16.10;99.90;;;;;;5144680;27;19942;-65
2022/07/05 05:02:42;;;;;;;;;;;16.10;99.90;;;;;;5143683;27;19957;-66
2022/07/05 05:05:09;;;;;;;;;;;16.20;99.90;;;;;;5128068;27;19919;-66
2022/07/05 05:07:39;;;;;;;;;;;16.30;99.90;;;;;;5138340;27;19920;-66
2022/07/05 05:10:06;;;;;;;;;;;16.30;99.90;;;;;;5123652;28;19991;-66
2022/07/05 05:12:33;;;;;;;;;;;16.40;99.90;;;;;;5123620;28;19919;-66
2022/07/05 05:14:59;;;;;;;;;;;16.50;99.90;;;;;;5126123;28;19958;-66
2022/07/05 05:17:26;;;;;;;;;;;16.60;99.90;;;;;;5136803;28;19931;-65
2022/07/05 05:19:53;;;;;;;;;;;16.70;99.90;;;;;;5123704;28;19955;-66
2022/07/05 05:22:19;;;;;;;;;;;16.80;99.90;;;;;;5123748;28;19927;-66
2022/07/05 05:24:47;;;;;;;;;;;16.80;99.90;;;;;;5123924;28;19919;-66
2022/07/05 05:27:14;;;;;;;;;;;16.90;99.90;;;;;;5122396;28;19926;-66
2022/07/05 05:29:41;;;;;;;;;;;17.00;99.90;;;;;;5123753;28;19919;-66
2022/07/05 05:32:07;;;;;;;;;;;17.00;99.90;;;;;;5123022;28;19926;-66
2022/07/05 05:34:34;;;;;;;;;;;17.20;99.90;;;;;;5122904;27;19994;-67
2022/07/05 05:37:01;;;;;;;;;;;17.30;99.90;;;;;;5123614;28;20123;-66
2022/07/05 05:39:28;;;;;;;;;;;17.40;99.90;;;;;;5123436;28;19943;-66
2022/07/05 05:41:56;;;;;;;;;;;17.50;99.90;;;;;;5140236;28;19920;-65
2022/07/05 05:44:23;;;;;;;;;;;17.50;99.90;;;;;;5122465;28;19961;-65
2022/07/05 05:46:49;;;;;;;;;;;17.70;99.90;;;;;;5123107;28;19951;-65
2022/07/05 05:49:16;;;;;;;;;;;17.80;99.90;;;;;;5123870;28;19957;-64
2022/07/05 05:51:43;;;;;;;;;;;17.90;99.90;;;;;;5125261;28;19919;-67
2022/07/05 05:54:09;;;;;;;;;;;18.00;99.90;;;;;;5122404;28;19958;-66
2022/07/05 05:56:38;;;;;;;;;;;18.10;99.90;;;;;;5123729;28;19919;-66
2022/07/05 05:59:06;;;;;;;;;;;18.20;99.90;;;;;;5123347;28;19924;-66
2022/07/05 06:01:32;;;;;;;;;;;18.30;99.90;;;;;;5136863;28;20167;-66
2022/07/05 06:03:59;;;;;;;;;;;18.40;99.90;;;;;;5142884;28;19926;-66
2022/07/05 06:06:26;;;;;;;;;;;18.50;99.90;;;;;;5138752;28;20000;-66
2022/07/05 06:08:52;;;;;;;;;;;18.60;99.90;;;;;;5136373;28;19951;-66
2022/07/05 06:11:19;;;;;;;;;;;18.70;99.90;;;;;;5137498;28;19919;-66
2022/07/05 06:13:45;;;;;;;;;;;18.70;99.90;;;;;;5143106;28;20163;-66
2022/07/05 06:16:13;;;;;;;;;;;18.80;99.90;;;;;;5133927;28;20180;-66
2022/07/05 06:18:40;;;;;;;;;;;18.90;99.90;;;;;;5123111;28;19970;-66
2022/07/05 06:21:07;;;;;;;;;;;18.90;99.90;;;;;;5124614;28;19927;-66
2022/07/05 06:23:33;;;;;;;;;;;19.10;99.90;;;;;;5126715;28;20168;-66
2022/07/05 06:26:00;;;;;;;;;;;19.10;99.90;;;;;;5144459;27;20222;-66
2022/07/05 06:28:27;;;;;;;;;;;19.20;99.90;;;;;;5146031;27;20207;-66
2022/07/05 06:30:53;;;;;;;;;;;19.20;99.90;;;;;;5132451;27;19926;-66
2022/07/05 06:33:21;;;;;;;;;;;19.30;99.90;;;;;;5129651;27;19925;-66
2022/07/05 06:35:48;;;;;;;;;;;19.40;99.90;;;;;;5139084;27;19961;-66
2022/07/05 06:38:15;;;;;;;;;;;19.60;99.90;;;;;;5127058;28;20112;-66
2022/07/05 06:40:43;;;;;;;;;;;19.60;99.90;;;;;;5127604;27;19951;-66
2022/07/05 06:43:11;;;;;;;;;;;19.70;99.90;;;;;;5133170;27;20215;-66
2022/07/05 06:45:38;;;;;;;;;;;19.80;99.90;;;;;;5132464;27;19919;-66
2022/07/05 06:48:05;;;;;;;;;;;19.80;99.90;;;;;;5143557;27;19991;-66
2022/07/05 06:50:35;;;;;;;;;;;19.90;99.90;;;;;;5132357;27;19998;-66
2022/07/05 06:53:02;;;;;;;;;;;19.90;99.90;;;;;;5132466;27;19927;-66
2022/07/05 06:55:29;;;;;;;;;;;19.90;99.90;;;;;;5138158;27;19919;-66
2022/07/05 06:57:59;;;;;;;;;;;20.00;99.90;;;;;;5130814;27;20145;-66
2022/07/05 07:00:26;;;;;;;;;;;20.00;99.90;;;;;;5137985;27;19931;-67
2022/07/05 07:02:53;;;;;;;;;;;20.00;99.90;;;;;;5129872;27;19959;-67
2022/07/05 07:05:19;;;;;;;;;;;20.10;99.90;;;;;;5129380;27;19955;-66
2022/07/05 07:10:32;;;;;;;;;;;20.20;99.90;;;;;;5129913;27;20233;-67
2022/07/05 07:12:58;;;;;;;;;;;20.30;99.90;;;;;;5145832;27;19950;-67
2022/07/05 07:15:25;;;;;;;;;;;20.30;99.90;;;;;;5133748;27;19920;-67
2022/07/05 07:17:52;;;;;;;;;;;20.40;99.90;;;;;;5142852;27;19919;-67
2022/07/05 07:20:19;;;;;;;;;;;20.40;99.90;;;;;;5139474;27;19983;-66
2022/07/05 07:22:45;;;;;;;;;;;20.50;99.90;;;;;;5131265;27;19951;-67
2022/07/05 07:25:13;;;;;;;;;;;20.50;99.90;;;;;;5127386;27;19982;-67
2022/07/05 07:27:44;;;;;;;;;;;20.60;99.90;;;;;;5140957;27;19919;-67
2022/07/05 07:30:11;;;;;;;;;;;20.70;99.90;;;;;;5133629;27;19919;-66
2022/07/05 07:32:38;;;;;;;;;;;20.80;99.90;;;;;;5130328;27;20231;-67
2022/07/05 07:35:05;;;;;;;;;;;20.80;99.90;;;;;;5141562;27;19981;-66
2022/07/05 07:37:32;;;;;;;;;;;20.90;99.90;;;;;;5145853;27;19951;-67
2022/07/05 07:40:00;;;;;;;;;;;21.00;99.90;;;;;;5132526;27;19920;-67
2022/07/05 07:42:28;;;;;;;;;;;21.10;99.90;;;;;;5124861;28;19919;-67
2022/07/05 07:44:55;;;;;;;;;;;21.20;99.90;;;;;;5131242;27;19947;-66
2022/07/05 07:47:22;;;;;;;;;;;21.30;99.90;;;;;;5127583;27;19927;-67
2022/07/05 07:49:49;;;;;;;;;;;21.40;99.90;;;;;;5125218;27;20325;-67
2022/07/05 07:52:15;;;;;;;;;;;21.40;99.90;;;;;;5137200;27;19923;-67
2022/07/05 07:54:42;;;;;;;;;;;21.50;99.90;;;;;;5140163;27;19920;-67
2022/07/05 07:57:09;;;;;;;;;;;21.50;99.90;;;;;;5129044;27;19978;-67
2022/07/05 07:59:36;;;;;;;;;;;21.70;99.90;;;;;;5125024;27;20254;-66
2022/07/05 08:02:03;;;;;;;;;;;21.80;99.90;;;;;;5126823;27;19960;-67
2022/07/05 08:04:30;;;;;;;;;;;21.90;99.90;;;;;;5131231;27;19982;-67
2022/07/05 08:06:56;;;;;;;;;;;21.90;99.90;;;;;;5140961;27;19920;-67
2022/07/05 08:09:23;;;;;;;;;;;22.00;99.90;;;;;;5140010;27;19958;-67
2022/07/05 08:11:50;;;;;;;;;;;22.00;99.90;;;;;;5144811;27;19966;-66
2022/07/05 08:14:17;;;;;;;;;;;22.00;99.90;;;;;;5126577;27;19979;-67
2022/07/05 08:16:46;;;;;;;;;;;22.10;99.90;;;;;;5135634;27;19920;-67
2022/07/05 08:21:57;;;;;;;;;;;22.20;99.50;;;;;;5135367;27;20240;-66
2022/07/05 08:24:24;;;;;;;;;;;22.40;98.80;;;;;;5128161;27;19919;-67
2022/07/05 08:26:51;;;;;;;;;;;22.40;98.00;;;;;;5138720;27;20230;-67
2022/07/05 08:29:17;;;;;;;;;;;22.60;97.90;;;;;;5124301;28;19954;-67
2022/07/05 08:31:47;;;;;;;;;;;22.70;97.40;;;;;;5125811;27;20231;-67
2022/07/05 08:34:14;;;;;;;;;;;22.80;97.10;;;;;;5126884;27;19954;-67
2022/07/05 08:36:41;;;;;;;;;;;22.90;97.20;;;;;;5133209;27;19920;-67
2022/07/05 08:39:08;;;;;;;;;;;23.00;96.90;;;;;;5136327;27;19923;-66
2022/07/05 08:41:36;;;;;;;;;;;23.10;95.80;;;;;;5131822;27;20213;-67
2022/07/05 08:44:04;;;;;;;;;;;23.20;95.40;;;;;;5132307;27;19947;-67
2022/07/05 08:46:31;;;;;;;;;;;23.30;95.80;;;;;;5129616;27;19958;-67
2022/07/05 08:48:59;;;;;;;;;;;23.30;95.00;;;;;;5133250;27;19934;-67
2022/07/05 08:51:27;;;;;;;;;;;23.40;95.10;;;;;;5129869;27;19995;-67
2022/07/05 08:53:55;;;;;;;;;;;23.50;94.70;;;;;;5131109;27;19955;-67
2022/07/05 08:56:22;;;;;;;;;;;23.50;94.30;;;;;;5132282;27;19920;-67
2022/07/05 08:58:50;;;;;;;;;;;23.60;94.90;;;;;;5131945;27;19926;-67
2022/07/05 09:01:17;;;;;;;;;;;23.60;94.90;;;;;;5133791;27;20226;-67
2022/07/05 09:03:44;;;;;;;;;;;23.70;94.30;;;;;;5131920;27;19958;-67
2022/07/05 09:06:13;;;;;;;;;;;23.80;95.30;;;;;;5134181;27;20118;-67
2022/07/05 09:08:40;;;;;;;;;;;23.90;94.80;;;;;;5131807;27;19955;-67
2022/07/05 09:11:07;;;;;;;;;;;23.90;94.50;;;;;;5129699;28;19982;-67
2022/07/05 09:13:34;;;;;;;;;;;23.90;94.80;;;;;;5124480;28;20183;-67
2022/07/05 09:16:01;;;;;;;;;;;23.90;95.00;;;;;;5130474;28;19946;-67
2022/07/05 09:18:42;;;;;;;;;;;23.80;94.30;;;;;;5134178;28;20011;-67
2022/07/05 09:21:14;;;;;;;;;;;23.80;93.60;;;;;;5125917;28;19986;-67
2022/07/05 09:23:41;;;;;;;;;;;23.70;93.20;;;;;;5130296;28;19931;-67
2022/07/05 09:26:07;;;;;;;;;;;23.60;93.20;;;;;;5133643;28;19966;-67
2022/07/05 09:28:34;;;;;;;;;;;23.60;93.80;;;;;;5131009;28;19920;-67
2022/07/05 09:31:01;;;;;;;;;;;23.50;93.80;;;;;;5131229;28;19954;-67
2022/07/05 09:33:27;;;;;;;;;;;23.40;94.00;;;;;;5133208;28;19927;-67
2022/07/05 09:35:57;;;;;;;;;;;23.50;94.50;;;;;;5131812;28;19958;-67
2022/07/05 09:38:25;;;;;;;;;;;23.60;94.30;;;;;;5131979;28;20150;-67
2022/07/05 09:40:53;;;;;;;;;;;23.80;93.80;;;;;;5137997;28;19919;-67
2022/07/05 09:43:20;;;;;;;;;;;24.00;93.50;;;;;;5134540;28;19920;-67
2022/07/05 09:45:51;;;;;;;;;;;24.10;93.60;;;;;;5134851;28;19931;-67
2022/07/05 09:48:17;;;;;;;;;;;24.10;93.30;;;;;;5139423;28;19969;-67
2022/07/05 09:50:44;;;;;;;;;;;24.10;93.30;;;;;;5129828;28;19966;-67
2022/07/05 09:53:12;;;;;;;;;;;24.00;93.10;;;;;;5129759;28;19919;-66
2022/07/05 09:55:40;;;;;;;;;;;24.00;93.40;;;;;;5130302;27;19926;-67
2022/07/05 09:58:07;;;;;;;;;;;23.90;92.90;;;;;;5135500;27;19920;-67
2022/07/05 10:00:34;;;;;;;;;;;23.80;93.30;;;;;;5132236;27;20231;-67
2022/07/05 10:03:02;;;;;;;;;;;23.80;93.50;;;;;;5127100;28;19927;-67
2022/07/05 10:05:29;;;;;;;;;;;23.80;93.00;;;;;;5127433;28;19919;-67
2022/07/05 10:07:57;;;;;;;;;;;23.90;93.00;;;;;;5161677;27;19935;-67
2022/07/05 10:10:25;;;;;;;;;;;24.10;93.10;;;;;;5168309;27;19956;-67
2022/07/05 10:12:53;;;;;;;;;;;24.30;92.60;;;;;;5150310;27;19920;-67
2022/07/05 10:15:21;;;;;;;;;;;24.40;91.80;;;;;;5135307;27;19947;-67
2022/07/05 10:17:53;;;;;;;;;;;24.60;91.90;;;;;;5129121;27;19947;-67
2022/07/05 10:20:22;;;;;;;;;;;24.80;90.40;;;;;;5164115;27;19982;-67
2022/07/05 10:22:49;;;;;;;;;;;25.00;90.30;;;;;;5165452;27;19962;-67
2022/07/05 10:25:15;;;;;;;;;;;25.10;91.00;;;;;;5168309;27;19919;-67
2022/07/05 10:27:43;;;;;;;;;;;25.10;90.80;;;;;;5149737;27;19927;-67
2022/07/05 10:30:11;;;;;;;;;;;25.00;91.00;;;;;;5147330;27;19951;-67
2022/07/05 10:32:39;;;;;;;;;;;25.00;91.10;;;;;;5146672;27;20252;-67
2022/07/05 10:35:06;;;;;;;;;;;25.10;91.30;;;;;;5145737;27;19963;-67
2022/07/05 10:37:33;;;;;;;;;;;25.20;90.60;;;;;;5147280;27;20166;-67
2022/07/05 10:40:01;;;;;;;;;;;25.10;90.30;;;;;;5132341;27;19999;-67
2022/07/05 10:42:29;;;;;;;;;;;25.10;90.20;;;;;;5126165;27;19999;-67
2022/07/05 10:44:56;;;;;;;;;;;25.00;90.40;;;;;;5127678;27;19927;-67
2022/07/05 10:47:25;;;;;;;;;;;24.90;90.40;;;;;;5126490;28;19942;-67
2022/07/05 10:50:02;;;;;;;;;;;24.80;91.20;;;;;;5129776;27;19926;-67
2022/07/05 10:52:29;;;;;;;;;;;24.80;91.10;;;;;;5144654;27;19964;-67
2022/07/05 10:55:14;;;;;;;;;;;24.70;91.50;;;;;;5146828;27;19919;-67
2022/07/05 10:57:41;;;;;;;;;;;24.70;90.70;;;;;;5167434;27;20218;-67
2022/07/05 11:00:08;;;;;;;;;;;24.60;91.30;;;;;;5146017;27;20211;-67
2022/07/05 11:02:36;;;;;;;;;;;24.60;90.90;;;;;;5129135;27;19927;-67
2022/07/05 11:05:02;;;;;;;;;;;24.70;91.10;;;;;;5125290;28;19926;-67
2022/07/05 11:07:48;;;;;;;;;;;24.90;91.50;;;;;;5125061;28;19919;-67
2022/07/05 11:10:14;;;;;;;;;;;25.20;91.50;;;;;;5125878;28;19947;-67
2022/07/05 11:12:41;;;;;;;;;;;25.60;90.40;;;;;;5125120;28;20263;-67
2022/07/05 11:15:10;;;;;;;;;;;25.90;90.10;;;;;;5125604;28;20134;-67
2022/07/05 11:17:38;;;;;;;;;;;26.10;89.40;;;;;;5125551;28;19919;-67
2022/07/05 11:20:09;;;;;;;;;;;26.30;87.30;;;;;;5125692;28;20164;-67
2022/07/05 11:22:36;;;;;;;;;;;26.50;87.80;;;;;;5121025;22;19920;-90
2022/07/05 11:25:04;;;;;;;;;;;26.60;86.50;;;;;;5092477;28;19947;-89
2022/07/05 11:27:33;;;;;;;;;;;26.80;86.70;;;;;;5098159;28;19944;-90
2022/07/05 11:29:59;;;;;;;;;;;27.00;87.20;;;;;;5094244;28;19920;-91
2022/07/05 11:32:36;;;;;;;;;;;27.10;87.90;;;;;;5106878;28;19924;-89
2022/07/05 11:35:16;;;;;;;;;;;27.30;87.00;;;;;;5107070;28;19979;-90
2022/07/05 11:38:03;;;;;;;;;;;27.40;86.70;;;;;;5106323;28;19942;-91
2022/07/05 11:40:33;;;;;;;;;;;27.40;86.90;;;;;;5101309;28;20123;-90
2022/07/05 11:43:06;;;;;;;;;;;27.50;87.00;;;;;;5105054;28;19983;-91
2022/07/05 11:45:38;;;;;;;;;;;27.60;85.30;;;;;;5099053;28;19927;-91
2022/07/05 11:48:09;;;;;;;;;;;27.50;85.00;;;;;;5105755;28;19920;-91
2022/07/05 11:50:37;;;;;;;;;;;27.40;84.70;;;;;;5105848;28;19920;-90
2022/07/05 11:53:04;;;;;;;;;;;27.30;85.70;;;;;;5092519;28;19921;-89
2022/07/05 11:55:31;;;;;;;;;;;27.30;84.20;;;;;;5094199;28;19920;-88
2022/07/05 11:57:58;;;;;;;;;;;27.10;84.40;;;;;;5106321;28;20186;-89
2022/07/05 12:00:29;;;;;;;;;;;26.80;84.20;;;;;;5100034;28;19948;-88
2022/07/05 12:02:56;;;;;;;;;;;26.60;84.00;;;;;;5105008;28;20103;-88
2022/07/05 12:05:23;;;;;;;;;;;26.40;83.90;;;;;;5106287;28;19990;-88
2022/07/05 12:07:51;;;;;;;;;;;26.30;84.50;;;;;;5103025;28;19933;-88
2022/07/05 12:13:06;;;;;;;;;;;26.70;84.80;;;;;;5105996;28;19954;-89
2022/07/05 12:15:33;;;;;;;;;;;27.10;83.10;;;;;;5105673;28;19920;-88
2022/07/05 12:18:04;;;;;;;;;;;27.50;83.20;;;;;;5104021;28;20648;-88
2022/07/05 12:20:31;;;;;;;;;;;27.70;80.40;;;;;;5104684;28;19979;-88
2022/07/05 12:23:00;;;;;;;;;;;27.90;79.80;;;;;;5104900;28;19920;-88
2022/07/05 12:25:27;;;;;;;;;;;27.80;78.90;;;;;;5104836;28;20218;-89
2022/07/05 12:27:55;;;;;;;;;;;27.60;78.50;;;;;;5105421;28;19950;-89
2022/07/05 12:30:22;;;;;;;;;;;27.90;79.00;;;;;;5105193;28;19920;-89
2022/07/05 12:32:59;;;;;;;;;;;28.20;80.00;;;;;;5105205;28;19926;-90
2022/07/05 12:35:33;;;;;;;;;;;28.40;81.30;;;;;;5104769;28;21450;-90
2022/07/05 12:38:05;;;;;;;;;;;28.40;79.10;;;;;;5103998;28;19920;-90
2022/07/05 12:40:32;;;;;;;;;;;28.10;79.20;;;;;;5104938;28;19948;-91
2022/07/05 12:43:03;;;;;;;;;;;28.20;80.70;;;;;;5104259;28;19927;-90
2022/07/05 12:45:30;;;;;;;;;;;28.30;78.70;;;;;;5104157;28;19947;-90
2022/07/05 12:47:58;;;;;;;;;;;28.30;77.60;;;;;;5104556;28;19920;-90
2022/07/05 12:59:10;;;;;;;;;;;27.90;79.00;;;;;;5105360;28;19982;-91
2022/07/05 13:01:38;;;;;;;;;;;28.10;79.00;;;;;;5104262;28;19920;-91
2022/07/05 13:04:12;;;;;;;;;;;28.60;79.60;;;;;;5103987;28;20416;-91
2022/07/05 13:06:43;;;;;;;;;;;28.90;77.10;;;;;;5104735;28;20207;-91
2022/07/05 13:09:10;;;;;;;;;;;29.30;76.20;;;;;;5104986;28;19927;-91
2022/07/05 13:11:38;;;;;;;;;;;29.40;75.90;;;;;;5104590;28;19951;-90
2022/07/05 13:14:10;;;;;;;;;;;29.40;77.00;;;;;;5097209;28;20100;-90
2022/07/05 13:16:38;;;;;;;;;;;29.60;75.80;;;;;;5104577;28;19943;-90
2022/07/05 13:19:08;;;;;;;;;;;29.70;75.60;;;;;;5103907;28;19924;-90
2022/07/05 13:21:35;;;;;;;;;;;29.90;74.50;;;;;;5104413;28;20213;-91
2022/07/05 13:24:03;;;;;;;;;;;30.10;74.10;;;;;;5104315;28;19944;-91
2022/07/05 13:26:29;;;;;;;;;;;29.90;75.80;;;;;;5104534;28;19920;-91
2022/07/05 13:28:59;;;;;;;;;;;29.90;74.40;;;;;;5104096;28;19940;-89
2022/07/05 13:31:28;;;;;;;;;;;29.80;72.60;;;;;;5104911;28;19920;-92
2022/07/05 13:33:56;;;;;;;;;;;30.00;72.50;;;;;;5108280;28;19927;-92
2022/07/05 13:36:23;;;;;;;;;;;30.20;72.40;;;;;;5105892;28;19927;-92
2022/07/05 13:38:50;;;;;;;;;;;30.40;71.80;;;;;;5109088;28;20127;-91
2022/07/05 13:41:20;;;;;;;;;;;30.50;73.20;;;;;;5121500;28;19909;-89
2022/07/05 13:43:47;;;;;;;;;;;30.30;70.30;;;;;;5101894;28;19919;-92
2022/07/05 13:46:19;;;;;;;;;;;29.80;70.40;;;;;;5113566;28;19924;-91
2022/07/05 13:48:46;;;;;;;;;;;29.40;69.90;;;;;;5109798;28;19965;-89
2022/07/05 13:51:13;;;;;;;;;;;29.00;69.70;;;;;;5108470;28;19940;-91
2022/07/05 13:53:42;;;;;;;;;;;28.70;70.90;;;;;;5107731;28;20123;-92
2022/07/05 13:56:09;;;;;;;;;;;28.40;71.20;;;;;;5108760;28;19920;-91
2022/07/05 13:58:36;;;;;;;;;;;28.70;73.90;;;;;;5108767;28;19920;-91
2022/07/05 14:03:56;;;;;;;;;;;29.50;72.60;;;;;;5109149;28;19923;-91
2022/07/05 14:06:23;;;;;;;;;;;29.90;71.90;;;;;;5108321;28;20114;-91
2022/07/05 14:11:18;;;;;;;;;;;30.30;70.60;;;;;;5062988;28;19970;-67
2022/07/05 14:13:45;;;;;;;;;;;30.20;69.70;;;;;;5065884;28;20148;-68
2022/07/05 14:16:12;;;;;;;;;;;30.40;69.70;;;;;;5066346;28;19987;-68
2022/07/05 14:18:38;;;;;;;;;;;30.60;71.60;;;;;;5083808;28;19948;-68
2022/07/05 14:21:07;;;;;;;;;;;30.50;70.60;;;;;;5082266;28;19975;-67
2022/07/05 14:23:33;;;;;;;;;;;30.10;69.10;;;;;;5070442;28;20156;-68
2022/07/05 14:26:01;;;;;;;;;;;29.60;69.90;;;;;;5070880;28;19921;-67
2022/07/05 14:28:27;;;;;;;;;;;29.30;72.50;;;;;;5079866;28;19924;-67
2022/07/05 14:30:54;;;;;;;;;;;29.50;73.20;;;;;;5075471;28;19952;-68
2022/07/05 14:33:21;;;;;;;;;;;29.90;73.00;;;;;;5072039;28;19921;-68
2022/07/05 14:35:48;;;;;;;;;;;29.90;70.30;;;;;;5073498;28;19928;-68
2022/07/05 14:38:16;;;;;;;;;;;29.80;69.90;;;;;;5074881;28;19927;-68
2022/07/05 14:40:42;;;;;;;;;;;29.60;70.00;;;;;;5080017;28;19964;-68